createdAt,value
2019-03-08T00:02:40.392Z,99.90
2019-03-08T00:07:47.647Z,99.90
2019-03-08T00:12:56.717Z,99.90
2019-03-08T00:18:04.109Z,99.90
2019-03-08T00:23:11.351Z,99.90
2019-03-08T00:28:18.820Z,99.90
2019-03-08T00:33:25.974Z,99.90
2019-03-08T00:38:33.156Z,99.90
2019-03-08T00:43:40.444Z,99.90
2019-03-08T00:48:47.755Z,99.90
2019-03-08T00:53:55.024Z,99.90
2019-03-08T00:59:03.647Z,99.90
2019-03-08T01:04:11.231Z,99.90
2019-03-08T01:09:18.830Z,99.90
2019-03-08T01:14:26.510Z,99.90
2019-03-08T01:19:34.022Z,99.90
2019-03-08T01:24:41.299Z,99.90
2019-03-08T01:29:48.649Z,99.90
2019-03-08T01:34:57.182Z,99.90
2019-03-08T01:40:04.832Z,99.90
2019-03-08T01:45:12.956Z,99.90
2019-03-08T01:50:20.147Z,99.90
2019-03-08T01:55:27.411Z,99.90
2019-03-08T02:00:34.642Z,99.90
2019-03-08T02:05:41.980Z,99.90
2019-03-08T02:10:49.239Z,99.90
2019-03-08T02:15:56.909Z,99.90
2019-03-08T02:21:07.124Z,99.90
2019-03-08T02:26:13.266Z,99.90
2019-03-08T02:31:20.608Z,99.90
2019-03-08T02:36:27.998Z,99.90
2019-03-08T02:41:35.236Z,99.90
2019-03-08T02:46:43.075Z,99.90
2019-03-08T02:51:50.368Z,99.90
2019-03-08T02:56:57.503Z,99.90
2019-03-08T03:02:05.612Z,99.90
2019-03-08T03:07:12.994Z,99.90
2019-03-08T03:12:22.262Z,99.90
2019-03-08T03:17:29.454Z,99.90
2019-03-08T03:22:36.635Z,99.90
2019-03-08T03:27:44.478Z,99.90
2019-03-08T03:32:51.662Z,99.90
2019-03-08T03:37:58.959Z,99.90
2019-03-08T03:43:06.120Z,99.90
2019-03-08T03:48:13.290Z,99.90
2019-03-08T03:53:20.434Z,99.90
2019-03-08T03:58:27.634Z,99.90
2019-03-08T04:03:34.846Z,99.90
2019-03-08T04:08:42.000Z,99.90
2019-03-08T04:13:49.660Z,99.90
2019-03-08T04:18:56.805Z,99.90
2019-03-08T04:24:03.867Z,99.90
2019-03-08T04:29:10.946Z,99.90
2019-03-08T04:34:18.089Z,99.90
2019-03-08T04:39:25.243Z,99.90
2019-03-08T04:44:32.350Z,99.90
2019-03-08T04:49:39.480Z,99.90
2019-03-08T04:54:46.765Z,99.90
2019-03-08T04:59:54.156Z,99.90
2019-03-08T05:05:01.569Z,99.90
2019-03-08T05:10:10.640Z,99.90
2019-03-08T05:15:18.758Z,99.90
2019-03-08T05:20:25.947Z,99.90
2019-03-08T05:25:33.090Z,99.90
2019-03-08T05:30:40.319Z,99.90
2019-03-08T05:35:47.564Z,99.90
2019-03-08T05:40:54.701Z,99.90
2019-03-08T05:46:01.824Z,99.90
2019-03-08T05:51:10.148Z,99.90
2019-03-08T05:56:17.286Z,99.90
2019-03-08T06:01:24.456Z,99.90
2019-03-08T06:06:31.614Z,99.90
2019-03-08T06:11:38.776Z,99.90
2019-03-08T06:16:45.826Z,99.90
2019-03-08T06:21:54.294Z,99.90
2019-03-08T06:27:01.641Z,99.90
2019-03-08T06:32:08.863Z,99.90
2019-03-08T06:37:16.921Z,99.90
2019-03-08T06:42:24.590Z,99.90
2019-03-08T06:47:31.658Z,99.90
2019-03-08T06:52:39.199Z,99.90
2019-03-08T06:57:46.602Z,99.90
2019-03-08T07:02:53.759Z,99.90
2019-03-08T07:08:00.901Z,99.90
2019-03-08T07:13:09.266Z,99.90
2019-03-08T07:18:16.475Z,99.90
2019-03-08T07:23:48.704Z,99.90
2019-03-08T07:29:20.700Z,99.90
2019-03-08T07:34:47.627Z,99.90
2019-03-08T07:40:07.036Z,99.90
2019-03-08T07:45:45.271Z,99.90
2019-03-08T07:51:10.092Z,99.90
2019-03-08T07:56:36.080Z,99.90
2019-03-08T08:02:05.485Z,99.90
2019-03-08T08:07:28.890Z,99.90
2019-03-08T08:12:53.271Z,99.90
2019-03-08T08:18:19.249Z,99.90
2019-03-08T08:23:43.793Z,99.90
2019-03-08T08:29:00.754Z,99.90
2019-03-08T08:34:19.658Z,99.90
2019-03-08T08:39:41.064Z,99.90
2019-03-08T08:45:04.863Z,99.90
2019-03-08T08:50:27.539Z,99.90
2019-03-08T08:56:00.740Z,99.90
2019-03-08T09:01:25.947Z,99.90
2019-03-08T09:06:42.058Z,99.90
2019-03-08T09:12:07.386Z,99.90
2019-03-08T09:17:48.608Z,99.90
2019-03-08T09:23:17.802Z,99.90
2019-03-08T09:28:53.904Z,99.90
2019-03-08T09:34:10.718Z,99.90
2019-03-08T09:39:39.676Z,99.90
2019-03-08T09:45:00.700Z,99.90
2019-03-08T09:50:45.652Z,99.90
2019-03-08T09:56:10.448Z,99.90
2019-03-08T10:01:36.760Z,99.90
2019-03-08T10:06:52.462Z,99.90
2019-03-08T10:12:21.541Z,99.90
2019-03-08T10:17:33.774Z,99.90
2019-03-08T10:23:19.957Z,99.90
2019-03-08T10:28:51.920Z,99.90
2019-03-08T10:34:17.095Z,99.90
2019-03-08T10:39:51.939Z,99.90
2019-03-08T10:45:11.876Z,99.90
2019-03-08T10:50:40.778Z,99.90
2019-03-08T10:55:54.077Z,99.90
2019-03-08T11:01:15.768Z,99.90
2019-03-08T11:06:42.140Z,99.90
2019-03-08T11:12:20.572Z,99.90
2019-03-08T11:17:51.124Z,99.90
2019-03-08T11:23:35.377Z,99.90
2019-03-08T11:29:02.894Z,99.90
2019-03-08T11:34:38.982Z,99.90
2019-03-08T11:40:01.627Z,99.90
2019-03-08T11:45:30.173Z,99.90
2019-03-08T11:51:10.929Z,99.90
2019-03-08T11:56:41.186Z,99.90
2019-03-08T12:02:15.177Z,99.90
2019-03-08T12:07:43.957Z,99.90
2019-03-08T12:13:10.174Z,99.90
2019-03-08T12:18:42.081Z,99.90
2019-03-08T12:24:17.593Z,99.90
2019-03-08T12:29:37.576Z,99.90
2019-03-08T12:35:09.512Z,99.90
2019-03-08T12:40:42.098Z,99.90
2019-03-08T12:46:17.715Z,99.90
2019-03-08T12:51:49.522Z,99.90
2019-03-08T12:57:08.780Z,99.90
2019-03-08T13:02:48.441Z,99.90
2019-03-08T13:08:14.175Z,99.90
2019-03-08T13:13:21.542Z,99.90
2019-03-08T13:18:28.844Z,99.90
2019-03-08T13:23:36.024Z,99.90
2019-03-08T13:28:43.537Z,99.90
2019-03-08T13:33:51.307Z,99.90
2019-03-08T13:38:58.588Z,99.90
2019-03-08T13:44:07.944Z,99.90
2019-03-08T13:49:15.111Z,99.90
2019-03-08T13:54:22.459Z,99.90
2019-03-08T13:59:30.929Z,99.90
2019-03-08T14:04:38.051Z,99.90
2019-03-08T14:09:45.184Z,99.90
2019-03-08T14:14:52.704Z,99.90
2019-03-08T14:20:00.037Z,99.90
2019-03-08T14:25:07.600Z,99.90
2019-03-08T14:30:16.988Z,99.90
2019-03-08T14:35:26.021Z,99.90
2019-03-08T14:40:53.360Z,99.90
2019-03-08T14:46:11.358Z,99.90
2019-03-08T14:51:18.444Z,96.70
2019-03-08T14:56:26.164Z,95.80
2019-03-08T15:01:33.791Z,87.60
2019-03-08T15:06:40.884Z,72.20
2019-03-08T15:11:48.417Z,82.40
2019-03-08T15:16:55.539Z,75.90
2019-03-08T15:22:02.869Z,74.60
2019-03-08T15:27:10.057Z,67.20
2019-03-08T15:32:17.536Z,69.10
2019-03-08T15:37:24.658Z,75.40
2019-03-08T15:42:36.287Z,67.20
2019-03-08T15:47:41.171Z,79.20
2019-03-08T15:52:48.373Z,88.60
2019-03-08T15:57:57.960Z,89.80
2019-03-08T16:03:06.113Z,90.20
2019-03-08T16:08:16.300Z,91.70
2019-03-08T16:13:23.489Z,92.60
2019-03-08T16:18:31.846Z,92.90
2019-03-08T16:23:38.971Z,92.90
2019-03-08T16:28:46.490Z,92.60
2019-03-08T16:33:55.754Z,93.20
2019-03-08T16:39:22.736Z,93.10
2019-03-08T16:44:51.758Z,93.50
2019-03-08T16:50:07.689Z,94.10
2019-03-08T16:55:44.064Z,93.80
2019-03-08T17:01:00.952Z,94.00
2019-03-08T17:06:11.127Z,94.00
2019-03-08T17:11:40.672Z,95.10
2019-03-08T17:17:05.395Z,95.00
2019-03-08T17:22:37.738Z,95.10
2019-03-08T17:27:54.956Z,95.70
2019-03-08T17:33:26.229Z,95.30
2019-03-08T17:38:58.592Z,95.30
2019-03-08T17:44:21.526Z,95.60
2019-03-08T17:49:42.206Z,96.00
2019-03-08T17:54:58.001Z,95.60
2019-03-08T18:00:14.557Z,96.10
2019-03-08T18:05:43.593Z,96.30
2019-03-08T18:11:19.689Z,96.50
2019-03-08T18:16:37.800Z,96.80
2019-03-08T18:22:03.982Z,97.00
2019-03-08T18:27:22.340Z,96.60
2019-03-08T18:32:58.279Z,97.00
2019-03-08T18:38:26.163Z,97.30
2019-03-08T18:44:06.902Z,97.60
2019-03-08T18:49:38.852Z,97.40
2019-03-08T18:54:59.621Z,97.80
2019-03-08T19:00:25.247Z,97.90
2019-03-08T19:05:49.385Z,98.10
2019-03-08T19:11:16.630Z,98.40
2019-03-08T19:16:51.801Z,98.40
2019-03-08T19:22:26.367Z,98.50
2019-03-08T19:27:42.424Z,98.70
2019-03-08T19:33:18.486Z,98.80
2019-03-08T19:38:56.376Z,98.50
2019-03-08T19:44:40.904Z,98.40
2019-03-08T19:50:10.004Z,98.30
2019-03-08T19:55:21.608Z,98.40
2019-03-08T20:01:06.568Z,98.10
2019-03-08T20:06:32.598Z,98.20
2019-03-08T20:12:13.907Z,98.40
2019-03-08T20:17:32.520Z,98.60
2019-03-08T20:23:01.278Z,98.80
2019-03-08T20:28:39.653Z,98.40
2019-03-08T20:34:05.801Z,98.30
2019-03-08T20:39:37.748Z,98.30
2019-03-08T20:44:56.865Z,98.10
2019-03-08T20:50:08.702Z,98.10
2019-03-08T20:55:16.361Z,97.90
2019-03-08T21:00:24.506Z,98.10
2019-03-08T21:05:31.921Z,97.80
2019-03-08T21:10:39.054Z,98.00
2019-03-08T21:15:46.187Z,98.40
2019-03-08T21:20:53.571Z,98.70
2019-03-08T21:26:00.944Z,99.00
2019-03-08T21:31:09.123Z,99.30
2019-03-08T21:36:16.984Z,99.70
2019-03-08T21:41:24.115Z,99.90
2019-03-08T21:46:31.364Z,99.90
2019-03-08T21:51:38.574Z,99.90
2019-03-08T21:56:48.351Z,99.90
2019-03-08T22:01:55.660Z,99.90
2019-03-08T22:07:02.831Z,99.90
2019-03-08T22:12:10.442Z,99.90
2019-03-08T22:17:17.664Z,99.90
2019-03-08T22:22:24.952Z,99.90
2019-03-08T22:27:32.616Z,99.90
2019-03-08T22:32:39.742Z,99.90
2019-03-08T22:37:47.563Z,99.80
2019-03-08T22:42:54.811Z,99.90
2019-03-08T22:48:02.348Z,99.90
2019-03-08T22:53:11.023Z,99.90
2019-03-08T22:58:18.176Z,99.90
2019-03-08T23:03:25.786Z,99.90
2019-03-08T23:08:32.976Z,99.90
2019-03-08T23:13:40.123Z,99.90
2019-03-08T23:18:48.263Z,99.90
2019-03-08T23:23:55.501Z,99.90
2019-03-08T23:29:07.580Z,99.90
2019-03-08T23:34:14.982Z,99.90
2019-03-08T23:39:22.189Z,99.90
2019-03-08T23:44:29.836Z,99.90
2019-03-08T23:49:37.258Z,99.90
2019-03-08T23:54:44.428Z,99.90
2019-03-08T23:59:52.170Z,99.90
